sensor_id;sensor_type;location;lat;lon;timestamp;P1;durP1;ratioP1;P2;durP2;ratioP2
8419;SDS011;4247;48.550;8.822;2023-06-22T00:01:15;7.80;;;4.23;;
8419;SDS011;4247;48.550;8.822;2023-06-22T00:03:42;8.13;;;5.60;;
8419;SDS011;4247;48.550;8.822;2023-06-22T00:06:09;7.70;;;4.87;;
8419;SDS011;4247;48.550;8.822;2023-06-22T00:08:35;8.93;;;5.07;;
8419;SDS011;4247;48.550;8.822;2023-06-22T00:11:02;9.00;;;4.50;;
8419;SDS011;4247;48.550;8.822;2023-06-22T00:13:30;8.27;;;5.37;;
8419;SDS011;4247;48.550;8.822;2023-06-22T00:15:57;8.63;;;4.97;;
8419;SDS011;4247;48.550;8.822;2023-06-22T00:18:23;7.67;;;4.90;;
8419;SDS011;4247;48.550;8.822;2023-06-22T00:20:52;8.70;;;6.00;;
8419;SDS011;4247;48.550;8.822;2023-06-22T00:23:22;7.37;;;5.20;;
8419;SDS011;4247;48.550;8.822;2023-06-22T00:25:50;9.60;;;5.63;;
8419;SDS011;4247;48.550;8.822;2023-06-22T00:28:17;5.73;;;4.77;;
8419;SDS011;4247;48.550;8.822;2023-06-22T00:30:45;8.53;;;5.83;;
8419;SDS011;4247;48.550;8.822;2023-06-22T00:33:12;12.03;;;5.40;;
8419;SDS011;4247;48.550;8.822;2023-06-22T00:35:39;10.47;;;6.23;;
8419;SDS011;4247;48.550;8.822;2023-06-22T00:38:07;11.20;;;6.00;;
8419;SDS011;4247;48.550;8.822;2023-06-22T00:40:33;8.47;;;4.83;;
8419;SDS011;4247;48.550;8.822;2023-06-22T00:43:00;10.00;;;5.80;;
8419;SDS011;4247;48.550;8.822;2023-06-22T00:45:27;7.13;;;5.17;;
8419;SDS011;4247;48.550;8.822;2023-06-22T00:47:55;8.83;;;6.20;;
8419;SDS011;4247;48.550;8.822;2023-06-22T00:50:24;11.83;;;6.33;;
8419;SDS011;4247;48.550;8.822;2023-06-22T00:52:53;10.13;;;6.37;;
8419;SDS011;4247;48.550;8.822;2023-06-22T00:55:21;7.53;;;5.37;;
8419;SDS011;4247;48.550;8.822;2023-06-22T00:57:48;7.93;;;5.40;;
8419;SDS011;4247;48.550;8.822;2023-06-22T01:00:16;5.67;;;5.00;;
8419;SDS011;4247;48.550;8.822;2023-06-22T01:02:45;7.93;;;6.27;;
8419;SDS011;4247;48.550;8.822;2023-06-22T01:05:13;7.90;;;5.47;;
8419;SDS011;4247;48.550;8.822;2023-06-22T01:07:42;10.73;;;5.37;;
8419;SDS011;4247;48.550;8.822;2023-06-22T01:10:18;6.03;;;5.17;;
8419;SDS011;4247;48.550;8.822;2023-06-22T01:12:51;9.57;;;6.37;;
8419;SDS011;4247;48.550;8.822;2023-06-22T01:15:26;7.37;;;5.20;;
8419;SDS011;4247;48.550;8.822;2023-06-22T01:17:57;6.80;;;5.27;;
8419;SDS011;4247;48.550;8.822;2023-06-22T01:20:26;6.67;;;5.10;;
8419;SDS011;4247;48.550;8.822;2023-06-22T01:23:00;7.60;;;5.20;;
8419;SDS011;4247;48.550;8.822;2023-06-22T01:25:33;7.50;;;5.30;;
8419;SDS011;4247;48.550;8.822;2023-06-22T01:28:11;9.77;;;5.13;;
8419;SDS011;4247;48.550;8.822;2023-06-22T01:30:52;5.60;;;4.70;;
8419;SDS011;4247;48.550;8.822;2023-06-22T01:33:28;6.50;;;5.80;;
8419;SDS011;4247;48.550;8.822;2023-06-22T01:35:57;10.73;;;5.30;;
8419;SDS011;4247;48.550;8.822;2023-06-22T01:38:24;8.57;;;5.80;;
8419;SDS011;4247;48.550;8.822;2023-06-22T01:40:51;8.03;;;6.07;;
8419;SDS011;4247;48.550;8.822;2023-06-22T01:43:19;7.27;;;5.33;;
8419;SDS011;4247;48.550;8.822;2023-06-22T01:45:48;11.80;;;5.80;;
8419;SDS011;4247;48.550;8.822;2023-06-22T01:48:16;8.00;;;5.23;;
8419;SDS011;4247;48.550;8.822;2023-06-22T01:50:43;11.70;;;6.67;;
8419;SDS011;4247;48.550;8.822;2023-06-22T01:53:11;6.90;;;5.50;;
8419;SDS011;4247;48.550;8.822;2023-06-22T01:55:37;11.10;;;6.00;;
8419;SDS011;4247;48.550;8.822;2023-06-22T01:58:04;11.80;;;6.73;;
8419;SDS011;4247;48.550;8.822;2023-06-22T02:00:31;9.23;;;6.53;;
8419;SDS011;4247;48.550;8.822;2023-06-22T02:03:04;11.17;;;6.77;;
8419;SDS011;4247;48.550;8.822;2023-06-22T02:05:36;11.80;;;6.43;;
8419;SDS011;4247;48.550;8.822;2023-06-22T02:08:09;10.73;;;6.87;;
8419;SDS011;4247;48.550;8.822;2023-06-22T02:10:41;13.40;;;7.13;;
8419;SDS011;4247;48.550;8.822;2023-06-22T02:13:10;13.63;;;6.43;;
8419;SDS011;4247;48.550;8.822;2023-06-22T02:15:39;8.50;;;6.13;;
8419;SDS011;4247;48.550;8.822;2023-06-22T02:18:06;11.97;;;6.57;;
8419;SDS011;4247;48.550;8.822;2023-06-22T02:20:33;9.20;;;6.73;;
8419;SDS011;4247;48.550;8.822;2023-06-22T02:23:04;12.53;;;6.27;;
8419;SDS011;4247;48.550;8.822;2023-06-22T02:25:31;10.70;;;5.60;;
8419;SDS011;4247;48.550;8.822;2023-06-22T02:27:58;14.43;;;6.27;;
8419;SDS011;4247;48.550;8.822;2023-06-22T02:30:25;10.50;;;5.67;;
8419;SDS011;4247;48.550;8.822;2023-06-22T02:32:52;9.47;;;6.33;;
8419;SDS011;4247;48.550;8.822;2023-06-22T02:35:23;10.03;;;6.63;;
8419;SDS011;4247;48.550;8.822;2023-06-22T02:37:52;10.20;;;6.13;;
8419;SDS011;4247;48.550;8.822;2023-06-22T02:40:19;11.00;;;6.53;;
8419;SDS011;4247;48.550;8.822;2023-06-22T02:42:46;8.00;;;6.53;;
8419;SDS011;4247;48.550;8.822;2023-06-22T02:45:12;9.00;;;5.93;;
8419;SDS011;4247;48.550;8.822;2023-06-22T02:47:39;7.83;;;6.10;;
8419;SDS011;4247;48.550;8.822;2023-06-22T02:50:06;11.30;;;5.80;;
8419;SDS011;4247;48.550;8.822;2023-06-22T02:52:33;9.50;;;6.43;;
8419;SDS011;4247;48.550;8.822;2023-06-22T02:55:01;8.27;;;6.63;;
8419;SDS011;4247;48.550;8.822;2023-06-22T02:57:29;11.87;;;7.43;;
8419;SDS011;4247;48.550;8.822;2023-06-22T02:59:56;12.93;;;6.80;;
8419;SDS011;4247;48.550;8.822;2023-06-22T03:02:22;11.07;;;6.63;;
8419;SDS011;4247;48.550;8.822;2023-06-22T03:04:49;8.17;;;5.53;;
8419;SDS011;4247;48.550;8.822;2023-06-22T03:07:18;8.83;;;6.73;;
8419;SDS011;4247;48.550;8.822;2023-06-22T03:09:45;10.43;;;6.10;;
8419;SDS011;4247;48.550;8.822;2023-06-22T03:12:13;13.40;;;6.77;;
8419;SDS011;4247;48.550;8.822;2023-06-22T03:14:40;8.17;;;5.70;;
8419;SDS011;4247;48.550;8.822;2023-06-22T03:17:06;10.83;;;5.87;;
8419;SDS011;4247;48.550;8.822;2023-06-22T03:19:33;9.83;;;7.00;;
8419;SDS011;4247;48.550;8.822;2023-06-22T03:22:00;9.33;;;6.03;;
8419;SDS011;4247;48.550;8.822;2023-06-22T03:24:27;7.60;;;5.80;;
8419;SDS011;4247;48.550;8.822;2023-06-22T03:26:54;17.07;;;6.83;;
8419;SDS011;4247;48.550;8.822;2023-06-22T03:29:22;14.63;;;8.23;;
8419;SDS011;4247;48.550;8.822;2023-06-22T03:31:50;12.67;;;6.80;;
8419;SDS011;4247;48.550;8.822;2023-06-22T03:34:17;9.43;;;6.70;;
8419;SDS011;4247;48.550;8.822;2023-06-22T03:36:43;11.30;;;6.80;;
8419;SDS011;4247;48.550;8.822;2023-06-22T03:39:11;12.00;;;6.50;;
8419;SDS011;4247;48.550;8.822;2023-06-22T03:41:38;9.93;;;6.43;;
8419;SDS011;4247;48.550;8.822;2023-06-22T03:44:04;15.73;;;7.03;;
8419;SDS011;4247;48.550;8.822;2023-06-22T03:46:32;12.93;;;6.23;;
8419;SDS011;4247;48.550;8.822;2023-06-22T03:48:59;9.13;;;6.10;;
8419;SDS011;4247;48.550;8.822;2023-06-22T03:51:28;10.27;;;5.93;;
8419;SDS011;4247;48.550;8.822;2023-06-22T03:53:55;9.17;;;6.70;;
8419;SDS011;4247;48.550;8.822;2023-06-22T03:56:21;8.20;;;5.70;;
8419;SDS011;4247;48.550;8.822;2023-06-22T03:58:48;8.13;;;5.97;;
8419;SDS011;4247;48.550;8.822;2023-06-22T04:01:15;11.23;;;6.30;;
8419;SDS011;4247;48.550;8.822;2023-06-22T04:03:43;8.47;;;5.23;;
8419;SDS011;4247;48.550;8.822;2023-06-22T04:06:13;7.63;;;5.23;;
8419;SDS011;4247;48.550;8.822;2023-06-22T04:08:39;7.40;;;6.23;;
8419;SDS011;4247;48.550;8.822;2023-06-22T04:11:07;9.97;;;5.63;;
8419;SDS011;4247;48.550;8.822;2023-06-22T04:13:33;15.73;;;5.77;;
8419;SDS011;4247;48.550;8.822;2023-06-22T04:16:00;7.20;;;5.70;;
8419;SDS011;4247;48.550;8.822;2023-06-22T04:18:27;7.63;;;5.60;;
8419;SDS011;4247;48.550;8.822;2023-06-22T04:20:55;5.97;;;5.27;;
8419;SDS011;4247;48.550;8.822;2023-06-22T04:23:22;14.07;;;5.63;;
8419;SDS011;4247;48.550;8.822;2023-06-22T04:25:48;8.57;;;5.53;;
8419;SDS011;4247;48.550;8.822;2023-06-22T04:28:16;10.03;;;6.23;;
8419;SDS011;4247;48.550;8.822;2023-06-22T04:30:43;14.13;;;5.87;;
8419;SDS011;4247;48.550;8.822;2023-06-22T04:33:12;7.50;;;5.90;;
8419;SDS011;4247;48.550;8.822;2023-06-22T04:35:39;8.87;;;6.73;;
8419;SDS011;4247;48.550;8.822;2023-06-22T04:38:08;7.53;;;6.43;;
8419;SDS011;4247;48.550;8.822;2023-06-22T04:40:38;9.93;;;6.77;;
8419;SDS011;4247;48.550;8.822;2023-06-22T04:43:04;12.40;;;6.20;;
8419;SDS011;4247;48.550;8.822;2023-06-22T04:45:31;9.30;;;6.63;;
8419;SDS011;4247;48.550;8.822;2023-06-22T04:47:58;7.43;;;6.00;;
8419;SDS011;4247;48.550;8.822;2023-06-22T04:50:25;8.73;;;5.80;;
8419;SDS011;4247;48.550;8.822;2023-06-22T04:52:52;8.57;;;5.83;;
8419;SDS011;4247;48.550;8.822;2023-06-22T04:55:20;7.07;;;5.10;;
8419;SDS011;4247;48.550;8.822;2023-06-22T04:57:47;7.73;;;5.50;;
8419;SDS011;4247;48.550;8.822;2023-06-22T05:00:15;11.33;;;5.20;;
8419;SDS011;4247;48.550;8.822;2023-06-22T05:02:43;8.37;;;5.47;;
8419;SDS011;4247;48.550;8.822;2023-06-22T05:05:10;6.60;;;5.47;;
8419;SDS011;4247;48.550;8.822;2023-06-22T05:07:39;8.30;;;5.60;;
8419;SDS011;4247;48.550;8.822;2023-06-22T05:10:08;8.97;;;5.33;;
8419;SDS011;4247;48.550;8.822;2023-06-22T05:12:37;8.33;;;5.33;;
8419;SDS011;4247;48.550;8.822;2023-06-22T05:15:04;5.20;;;4.47;;
8419;SDS011;4247;48.550;8.822;2023-06-22T05:17:32;7.43;;;4.67;;
8419;SDS011;4247;48.550;8.822;2023-06-22T05:19:59;6.17;;;4.60;;
8419;SDS011;4247;48.550;8.822;2023-06-22T05:22:25;6.47;;;4.67;;
8419;SDS011;4247;48.550;8.822;2023-06-22T05:24:52;8.87;;;5.80;;
8419;SDS011;4247;48.550;8.822;2023-06-22T05:27:19;13.93;;;5.70;;
8419;SDS011;4247;48.550;8.822;2023-06-22T05:29:47;11.10;;;5.40;;
8419;SDS011;4247;48.550;8.822;2023-06-22T05:32:13;6.93;;;5.00;;
8419;SDS011;4247;48.550;8.822;2023-06-22T05:34:40;8.60;;;5.40;;
8419;SDS011;4247;48.550;8.822;2023-06-22T05:37:07;7.10;;;5.20;;
8419;SDS011;4247;48.550;8.822;2023-06-22T05:39:34;6.30;;;4.57;;
8419;SDS011;4247;48.550;8.822;2023-06-22T05:42:03;6.33;;;5.20;;
8419;SDS011;4247;48.550;8.822;2023-06-22T05:44:30;12.13;;;4.27;;
8419;SDS011;4247;48.550;8.822;2023-06-22T05:46:59;7.63;;;5.73;;
8419;SDS011;4247;48.550;8.822;2023-06-22T05:49:26;10.20;;;5.17;;
8419;SDS011;4247;48.550;8.822;2023-06-22T05:51:54;5.60;;;3.93;;
8419;SDS011;4247;48.550;8.822;2023-06-22T05:54:21;8.73;;;4.70;;
8419;SDS011;4247;48.550;8.822;2023-06-22T05:56:48;5.97;;;4.77;;
8419;SDS011;4247;48.550;8.822;2023-06-22T05:59:15;9.40;;;5.17;;
8419;SDS011;4247;48.550;8.822;2023-06-22T06:01:41;10.07;;;4.57;;
8419;SDS011;4247;48.550;8.822;2023-06-22T06:04:09;5.03;;;4.60;;
8419;SDS011;4247;48.550;8.822;2023-06-22T06:06:36;7.00;;;4.00;;
8419;SDS011;4247;48.550;8.822;2023-06-22T06:09:03;3.93;;;3.63;;
8419;SDS011;4247;48.550;8.822;2023-06-22T06:11:29;5.70;;;4.03;;
8419;SDS011;4247;48.550;8.822;2023-06-22T06:13:56;7.07;;;3.67;;
8419;SDS011;4247;48.550;8.822;2023-06-22T06:16:23;5.97;;;3.73;;
8419;SDS011;4247;48.550;8.822;2023-06-22T06:18:50;4.60;;;3.40;;
8419;SDS011;4247;48.550;8.822;2023-06-22T06:21:19;5.63;;;4.20;;
8419;SDS011;4247;48.550;8.822;2023-06-22T06:23:46;5.13;;;3.10;;
8419;SDS011;4247;48.550;8.822;2023-06-22T06:26:13;4.73;;;3.73;;
8419;SDS011;4247;48.550;8.822;2023-06-22T06:28:41;5.27;;;4.17;;
8419;SDS011;4247;48.550;8.822;2023-06-22T06:31:08;10.47;;;3.73;;
8419;SDS011;4247;48.550;8.822;2023-06-22T06:33:37;4.30;;;3.43;;
8419;SDS011;4247;48.550;8.822;2023-06-22T06:36:03;7.13;;;3.70;;
8419;SDS011;4247;48.550;8.822;2023-06-22T06:38:32;7.00;;;3.20;;
8419;SDS011;4247;48.550;8.822;2023-06-22T06:40:58;5.87;;;2.20;;
8419;SDS011;4247;48.550;8.822;2023-06-22T06:43:25;6.13;;;2.57;;
8419;SDS011;4247;48.550;8.822;2023-06-22T06:45:52;8.27;;;3.40;;
8419;SDS011;4247;48.550;8.822;2023-06-22T06:48:18;6.33;;;3.33;;
8419;SDS011;4247;48.550;8.822;2023-06-22T06:50:45;5.33;;;3.30;;
8419;SDS011;4247;48.550;8.822;2023-06-22T06:53:12;7.67;;;3.07;;
8419;SDS011;4247;48.550;8.822;2023-06-22T06:55:40;5.90;;;3.20;;
8419;SDS011;4247;48.550;8.822;2023-06-22T06:58:07;4.53;;;3.27;;
8419;SDS011;4247;48.550;8.822;2023-06-22T07:00:35;9.13;;;3.10;;
8419;SDS011;4247;48.550;8.822;2023-06-22T07:03:02;4.20;;;2.97;;
8419;SDS011;4247;48.550;8.822;2023-06-22T07:05:28;6.03;;;2.83;;
8419;SDS011;4247;48.550;8.822;2023-06-22T07:07:55;8.50;;;3.00;;
8419;SDS011;4247;48.550;8.822;2023-06-22T07:10:22;5.87;;;2.83;;
8419;SDS011;4247;48.550;8.822;2023-06-22T07:12:50;6.70;;;3.10;;
8419;SDS011;4247;48.550;8.822;2023-06-22T07:15:16;4.03;;;3.47;;
8419;SDS011;4247;48.550;8.822;2023-06-22T07:17:43;5.10;;;2.90;;
8419;SDS011;4247;48.550;8.822;2023-06-22T07:20:10;8.73;;;3.37;;
8419;SDS011;4247;48.550;8.822;2023-06-22T07:22:37;6.73;;;3.33;;
8419;SDS011;4247;48.550;8.822;2023-06-22T07:25:05;7.93;;;3.77;;
8419;SDS011;4247;48.550;8.822;2023-06-22T07:27:35;5.10;;;2.90;;
8419;SDS011;4247;48.550;8.822;2023-06-22T07:30:05;3.33;;;2.63;;
8419;SDS011;4247;48.550;8.822;2023-06-22T07:32:33;3.33;;;2.23;;
8419;SDS011;4247;48.550;8.822;2023-06-22T07:34:59;7.87;;;3.17;;
8419;SDS011;4247;48.550;8.822;2023-06-22T07:37:27;7.17;;;3.60;;
8419;SDS011;4247;48.550;8.822;2023-06-22T07:39:54;6.60;;;3.33;;
8419;SDS011;4247;48.550;8.822;2023-06-22T07:42:23;4.20;;;2.87;;
8419;SDS011;4247;48.550;8.822;2023-06-22T07:44:50;7.27;;;2.90;;
8419;SDS011;4247;48.550;8.822;2023-06-22T07:47:18;7.07;;;3.07;;
8419;SDS011;4247;48.550;8.822;2023-06-22T07:49:45;8.93;;;3.63;;
8419;SDS011;4247;48.550;8.822;2023-06-22T07:52:12;5.33;;;3.53;;
8419;SDS011;4247;48.550;8.822;2023-06-22T07:54:38;8.43;;;3.87;;
8419;SDS011;4247;48.550;8.822;2023-06-22T07:57:05;6.93;;;3.83;;
8419;SDS011;4247;48.550;8.822;2023-06-22T07:59:32;6.57;;;3.30;;
8419;SDS011;4247;48.550;8.822;2023-06-22T08:01:59;7.40;;;2.87;;
8419;SDS011;4247;48.550;8.822;2023-06-22T08:04:28;4.70;;;3.13;;
8419;SDS011;4247;48.550;8.822;2023-06-22T08:06:56;8.10;;;3.00;;
8419;SDS011;4247;48.550;8.822;2023-06-22T08:09:22;10.23;;;3.43;;
8419;SDS011;4247;48.550;8.822;2023-06-22T08:11:49;7.23;;;2.87;;
8419;SDS011;4247;48.550;8.822;2023-06-22T08:14:16;6.37;;;2.80;;
8419;SDS011;4247;48.550;8.822;2023-06-22T08:16:42;11.87;;;3.77;;
8419;SDS011;4247;48.550;8.822;2023-06-22T08:19:09;11.70;;;3.33;;
8419;SDS011;4247;48.550;8.822;2023-06-22T08:21:37;7.37;;;3.57;;
8419;SDS011;4247;48.550;8.822;2023-06-22T08:24:04;8.10;;;3.13;;
8419;SDS011;4247;48.550;8.822;2023-06-22T08:26:32;6.77;;;2.93;;
8419;SDS011;4247;48.550;8.822;2023-06-22T08:29:01;6.80;;;3.43;;
8419;SDS011;4247;48.550;8.822;2023-06-22T08:31:28;7.50;;;3.60;;
8419;SDS011;4247;48.550;8.822;2023-06-22T08:33:55;5.13;;;2.87;;
8419;SDS011;4247;48.550;8.822;2023-06-22T08:36:22;6.27;;;2.90;;
8419;SDS011;4247;48.550;8.822;2023-06-22T08:38:50;10.47;;;3.63;;
8419;SDS011;4247;48.550;8.822;2023-06-22T08:41:18;7.47;;;3.17;;
8419;SDS011;4247;48.550;8.822;2023-06-22T08:43:44;5.73;;;3.40;;
8419;SDS011;4247;48.550;8.822;2023-06-22T08:46:11;7.10;;;2.87;;
8419;SDS011;4247;48.550;8.822;2023-06-22T08:48:38;8.10;;;3.30;;
8419;SDS011;4247;48.550;8.822;2023-06-22T08:51:05;7.60;;;3.00;;
8419;SDS011;4247;48.550;8.822;2023-06-22T08:53:32;7.37;;;3.00;;
8419;SDS011;4247;48.550;8.822;2023-06-22T08:56:01;5.10;;;2.40;;
8419;SDS011;4247;48.550;8.822;2023-06-22T08:58:28;6.47;;;3.50;;
8419;SDS011;4247;48.550;8.822;2023-06-22T09:00:54;6.23;;;3.17;;
8419;SDS011;4247;48.550;8.822;2023-06-22T09:03:21;5.83;;;3.30;;
8419;SDS011;4247;48.550;8.822;2023-06-22T09:05:51;5.70;;;2.73;;
8419;SDS011;4247;48.550;8.822;2023-06-22T09:08:18;9.60;;;2.50;;
8419;SDS011;4247;48.550;8.822;2023-06-22T09:10:45;7.47;;;2.93;;
8419;SDS011;4247;48.550;8.822;2023-06-22T09:13:13;6.63;;;3.20;;
8419;SDS011;4247;48.550;8.822;2023-06-22T09:15:39;5.40;;;2.87;;
8419;SDS011;4247;48.550;8.822;2023-06-22T09:18:06;6.23;;;3.03;;
8419;SDS011;4247;48.550;8.822;2023-06-22T09:20:36;7.53;;;2.97;;
8419;SDS011;4247;48.550;8.822;2023-06-22T09:23:03;11.07;;;3.00;;
8419;SDS011;4247;48.550;8.822;2023-06-22T09:25:29;7.00;;;2.77;;
8419;SDS011;4247;48.550;8.822;2023-06-22T09:27:56;7.80;;;2.87;;
8419;SDS011;4247;48.550;8.822;2023-06-22T09:30:24;12.30;;;3.90;;
8419;SDS011;4247;48.550;8.822;2023-06-22T09:32:51;4.53;;;3.20;;
8419;SDS011;4247;48.550;8.822;2023-06-22T09:35:17;7.43;;;3.03;;
8419;SDS011;4247;48.550;8.822;2023-06-22T09:37:45;6.07;;;2.90;;
8419;SDS011;4247;48.550;8.822;2023-06-22T09:40:12;10.43;;;3.03;;
8419;SDS011;4247;48.550;8.822;2023-06-22T09:42:41;6.20;;;2.67;;
8419;SDS011;4247;48.550;8.822;2023-06-22T09:45:08;9.03;;;3.33;;
8419;SDS011;4247;48.550;8.822;2023-06-22T09:47:37;9.60;;;3.23;;
8419;SDS011;4247;48.550;8.822;2023-06-22T09:50:04;8.93;;;3.30;;
8419;SDS011;4247;48.550;8.822;2023-06-22T09:52:31;7.67;;;3.57;;
8419;SDS011;4247;48.550;8.822;2023-06-22T09:54:58;6.63;;;3.73;;
8419;SDS011;4247;48.550;8.822;2023-06-22T09:57:24;7.63;;;3.10;;
8419;SDS011;4247;48.550;8.822;2023-06-22T09:59:51;7.57;;;2.80;;
8419;SDS011;4247;48.550;8.822;2023-06-22T10:02:18;4.87;;;3.10;;
8419;SDS011;4247;48.550;8.822;2023-06-22T10:04:46;8.13;;;3.07;;
8419;SDS011;4247;48.550;8.822;2023-06-22T10:07:12;6.07;;;2.63;;
8419;SDS011;4247;48.550;8.822;2023-06-22T10:09:39;8.23;;;3.27;;
8419;SDS011;4247;48.550;8.822;2023-06-22T10:12:06;8.80;;;2.97;;
8419;SDS011;4247;48.550;8.822;2023-06-22T10:14:33;7.13;;;3.13;;
8419;SDS011;4247;48.550;8.822;2023-06-22T10:17:00;10.37;;;3.20;;
8419;SDS011;4247;48.550;8.822;2023-06-22T10:19:28;6.67;;;3.07;;
8419;SDS011;4247;48.550;8.822;2023-06-22T10:21:56;5.23;;;2.80;;
8419;SDS011;4247;48.550;8.822;2023-06-22T10:24:22;7.70;;;3.23;;
8419;SDS011;4247;48.550;8.822;2023-06-22T10:26:49;13.23;;;3.50;;
8419;SDS011;4247;48.550;8.822;2023-06-22T10:29:16;6.67;;;3.37;;
8419;SDS011;4247;48.550;8.822;2023-06-22T10:31:43;8.73;;;2.93;;
8419;SDS011;4247;48.550;8.822;2023-06-22T10:34:09;7.73;;;3.47;;
8419;SDS011;4247;48.550;8.822;2023-06-22T10:36:36;4.50;;;3.03;;
8419;SDS011;4247;48.550;8.822;2023-06-22T10:39:04;5.83;;;2.47;;
8419;SDS011;4247;48.550;8.822;2023-06-22T10:41:31;6.97;;;3.07;;
8419;SDS011;4247;48.550;8.822;2023-06-22T10:43:58;6.40;;;3.07;;
8419;SDS011;4247;48.550;8.822;2023-06-22T10:46:25;5.70;;;3.00;;
8419;SDS011;4247;48.550;8.822;2023-06-22T10:48:52;11.67;;;3.50;;
8419;SDS011;4247;48.550;8.822;2023-06-22T10:51:22;5.80;;;2.90;;
8419;SDS011;4247;48.550;8.822;2023-06-22T10:53:48;8.20;;;2.90;;
8419;SDS011;4247;48.550;8.822;2023-06-22T10:56:17;7.00;;;3.63;;
8419;SDS011;4247;48.550;8.822;2023-06-22T10:58:44;12.90;;;3.78;;
8419;SDS011;4247;48.550;8.822;2023-06-22T11:01:11;6.17;;;2.30;;
8419;SDS011;4247;48.550;8.822;2023-06-22T11:03:38;10.73;;;3.00;;
8419;SDS011;4247;48.550;8.822;2023-06-22T11:06:04;10.33;;;3.80;;
8419;SDS011;4247;48.550;8.822;2023-06-22T11:08:31;11.20;;;3.13;;
8419;SDS011;4247;48.550;8.822;2023-06-22T11:10:58;8.70;;;2.77;;
8419;SDS011;4247;48.550;8.822;2023-06-22T11:13:26;4.97;;;3.13;;
8419;SDS011;4247;48.550;8.822;2023-06-22T11:15:52;6.77;;;3.13;;
8419;SDS011;4247;48.550;8.822;2023-06-22T11:18:19;8.60;;;3.20;;
8419;SDS011;4247;48.550;8.822;2023-06-22T11:20:48;9.60;;;3.30;;
8419;SDS011;4247;48.550;8.822;2023-06-22T11:23:14;5.80;;;3.53;;
8419;SDS011;4247;48.550;8.822;2023-06-22T11:25:41;4.60;;;2.43;;
8419;SDS011;4247;48.550;8.822;2023-06-22T11:28:08;6.63;;;3.00;;
8419;SDS011;4247;48.550;8.822;2023-06-22T11:30:36;5.90;;;2.33;;
8419;SDS011;4247;48.550;8.822;2023-06-22T11:33:03;7.30;;;2.67;;
8419;SDS011;4247;48.550;8.822;2023-06-22T11:35:30;3.57;;;2.67;;
8419;SDS011;4247;48.550;8.822;2023-06-22T11:37:56;6.45;;;2.90;;
8419;SDS011;4247;48.550;8.822;2023-06-22T11:40:23;4.93;;;3.45;;
8419;SDS011;4247;48.550;8.822;2023-06-22T11:42:50;6.33;;;3.03;;
8419;SDS011;4247;48.550;8.822;2023-06-22T11:45:17;5.03;;;2.35;;
8419;SDS011;4247;48.550;8.822;2023-06-22T11:47:46;6.60;;;3.67;;
8419;SDS011;4247;48.550;8.822;2023-06-22T11:50:13;7.22;;;3.03;;
8419;SDS011;4247;48.550;8.822;2023-06-22T11:52:40;6.33;;;3.00;;
8419;SDS011;4247;48.550;8.822;2023-06-22T11:55:07;7.13;;;3.37;;
8419;SDS011;4247;48.550;8.822;2023-06-22T11:57:35;7.17;;;3.00;;
8419;SDS011;4247;48.550;8.822;2023-06-22T12:00:02;7.70;;;2.53;;
8419;SDS011;4247;48.550;8.822;2023-06-22T12:02:35;4.73;;;3.03;;
8419;SDS011;4247;48.550;8.822;2023-06-22T12:05:04;6.57;;;2.90;;
8419;SDS011;4247;48.550;8.822;2023-06-22T12:07:33;9.40;;;3.80;;
8419;SDS011;4247;48.550;8.822;2023-06-22T12:09:59;5.93;;;2.50;;
8419;SDS011;4247;48.550;8.822;2023-06-22T12:12:26;8.20;;;3.30;;
8419;SDS011;4247;48.550;8.822;2023-06-22T12:14:53;6.47;;;3.50;;
8419;SDS011;4247;48.550;8.822;2023-06-22T12:17:19;7.07;;;2.87;;
8419;SDS011;4247;48.550;8.822;2023-06-22T12:19:46;7.00;;;3.03;;
8419;SDS011;4247;48.550;8.822;2023-06-22T12:22:16;8.37;;;2.73;;
8419;SDS011;4247;48.550;8.822;2023-06-22T12:24:43;11.52;;;3.13;;
8419;SDS011;4247;48.550;8.822;2023-06-22T12:27:09;3.63;;;2.70;;
8419;SDS011;4247;48.550;8.822;2023-06-22T12:29:36;5.90;;;2.30;;
8419;SDS011;4247;48.550;8.822;2023-06-22T12:32:03;5.30;;;3.13;;
8419;SDS011;4247;48.550;8.822;2023-06-22T12:34:30;9.80;;;3.57;;
8419;SDS011;4247;48.550;8.822;2023-06-22T12:36:57;7.50;;;3.90;;
8419;SDS011;4247;48.550;8.822;2023-06-22T12:39:25;4.43;;;3.15;;
8419;SDS011;4247;48.550;8.822;2023-06-22T12:41:52;4.00;;;2.90;;
8419;SDS011;4247;48.550;8.822;2023-06-22T12:44:18;11.53;;;3.47;;
8419;SDS011;4247;48.550;8.822;2023-06-22T12:46:45;6.35;;;2.47;;
8419;SDS011;4247;48.550;8.822;2023-06-22T12:49:12;6.97;;;3.90;;
8419;SDS011;4247;48.550;8.822;2023-06-22T12:51:39;5.30;;;2.97;;
8419;SDS011;4247;48.550;8.822;2023-06-22T12:54:07;7.63;;;4.00;;
8419;SDS011;4247;48.550;8.822;2023-06-22T12:56:35;7.80;;;3.63;;
8419;SDS011;4247;48.550;8.822;2023-06-22T12:59:02;9.55;;;3.55;;
8419;SDS011;4247;48.550;8.822;2023-06-22T13:01:29;4.00;;;3.03;;
8419;SDS011;4247;48.550;8.822;2023-06-22T13:03:56;6.27;;;3.37;;
8419;SDS011;4247;48.550;8.822;2023-06-22T13:06:23;5.77;;;3.43;;
8419;SDS011;4247;48.550;8.822;2023-06-22T13:08:50;9.43;;;3.83;;
8419;SDS011;4247;48.550;8.822;2023-06-22T13:11:17;8.50;;;3.40;;
8419;SDS011;4247;48.550;8.822;2023-06-22T13:13:45;11.50;;;4.10;;
8419;SDS011;4247;48.550;8.822;2023-06-22T13:16:12;6.17;;;3.53;;
8419;SDS011;4247;48.550;8.822;2023-06-22T13:18:39;10.03;;;4.10;;
8419;SDS011;4247;48.550;8.822;2023-06-22T13:21:06;6.38;;;3.50;;
8419;SDS011;4247;48.550;8.822;2023-06-22T13:23:32;7.30;;;3.60;;
8419;SDS011;4247;48.550;8.822;2023-06-22T13:26:00;6.63;;;3.10;;
8419;SDS011;4247;48.550;8.822;2023-06-22T13:28:27;5.07;;;3.43;;
8419;SDS011;4247;48.550;8.822;2023-06-22T13:30:56;13.23;;;4.13;;
8419;SDS011;4247;48.550;8.822;2023-06-22T13:33:23;9.27;;;3.77;;
8419;SDS011;4247;48.550;8.822;2023-06-22T13:35:49;9.73;;;3.40;;
8419;SDS011;4247;48.550;8.822;2023-06-22T13:38:16;11.33;;;3.60;;
8419;SDS011;4247;48.550;8.822;2023-06-22T13:40:43;6.68;;;2.83;;
8419;SDS011;4247;48.550;8.822;2023-06-22T13:43:10;5.00;;;3.50;;
8419;SDS011;4247;48.550;8.822;2023-06-22T13:45:37;8.53;;;4.00;;
8419;SDS011;4247;48.550;8.822;2023-06-22T13:48:05;9.55;;;3.65;;
8419;SDS011;4247;48.550;8.822;2023-06-22T13:50:32;12.77;;;2.88;;
8419;SDS011;4247;48.550;8.822;2023-06-22T13:52:58;6.93;;;3.60;;
8419;SDS011;4247;48.550;8.822;2023-06-22T13:55:25;4.93;;;3.63;;
8419;SDS011;4247;48.550;8.822;2023-06-22T13:57:52;13.80;;;3.33;;
8419;SDS011;4247;48.550;8.822;2023-06-22T14:00:19;8.47;;;2.20;;
8419;SDS011;4247;48.550;8.822;2023-06-22T14:02:46;14.37;;;2.73;;
8419;SDS011;4247;48.550;8.822;2023-06-22T14:05:14;6.10;;;1.73;;
8419;SDS011;4247;48.550;8.822;2023-06-22T14:07:40;8.98;;;1.83;;
8419;SDS011;4247;48.550;8.822;2023-06-22T14:10:07;5.53;;;1.67;;
8419;SDS011;4247;48.550;8.822;2023-06-22T14:12:34;10.13;;;3.05;;
8419;SDS011;4247;48.550;8.822;2023-06-22T14:15:01;15.52;;;1.83;;
8419;SDS011;4247;48.550;8.822;2023-06-22T14:17:28;6.15;;;2.13;;
8419;SDS011;4247;48.550;8.822;2023-06-22T14:19:55;5.93;;;1.43;;
8419;SDS011;4247;48.550;8.822;2023-06-22T14:22:23;15.80;;;1.97;;
8419;SDS011;4247;48.550;8.822;2023-06-22T14:24:50;8.27;;;1.35;;
8419;SDS011;4247;48.550;8.822;2023-06-22T14:27:17;6.65;;;2.05;;
8419;SDS011;4247;48.550;8.822;2023-06-22T14:29:44;9.50;;;1.67;;
8419;SDS011;4247;48.550;8.822;2023-06-22T14:32:10;6.87;;;2.23;;
8419;SDS011;4247;48.550;8.822;2023-06-22T14:34:37;6.95;;;1.77;;
8419;SDS011;4247;48.550;8.822;2023-06-22T14:37:05;8.17;;;2.07;;
8419;SDS011;4247;48.550;8.822;2023-06-22T14:39:33;8.93;;;1.67;;
8419;SDS011;4247;48.550;8.822;2023-06-22T14:42:00;11.63;;;1.63;;
8419;SDS011;4247;48.550;8.822;2023-06-22T14:44:28;9.23;;;1.90;;
8419;SDS011;4247;48.550;8.822;2023-06-22T14:46:55;8.17;;;1.77;;
8419;SDS011;4247;48.550;8.822;2023-06-22T14:49:22;5.40;;;1.40;;
8419;SDS011;4247;48.550;8.822;2023-06-22T14:51:48;7.50;;;1.67;;
8419;SDS011;4247;48.550;8.822;2023-06-22T14:54:15;11.43;;;1.57;;
8419;SDS011;4247;48.550;8.822;2023-06-22T14:56:43;4.77;;;1.50;;
8419;SDS011;4247;48.550;8.822;2023-06-22T14:59:10;7.73;;;2.27;;
8419;SDS011;4247;48.550;8.822;2023-06-22T15:01:36;7.57;;;1.37;;
8419;SDS011;4247;48.550;8.822;2023-06-22T15:04:03;5.77;;;1.47;;
8419;SDS011;4247;48.550;8.822;2023-06-22T15:06:30;5.53;;;1.60;;
8419;SDS011;4247;48.550;8.822;2023-06-22T15:08:57;5.40;;;1.80;;
8419;SDS011;4247;48.550;8.822;2023-06-22T15:11:24;8.93;;;1.58;;
8419;SDS011;4247;48.550;8.822;2023-06-22T15:13:52;6.53;;;2.10;;